Time;durP1;ratioP1;P1;durP2;ratioP2;P2;SDS_P1;SDS_P2;PMS_P1;PMS_P2;Temp;Humidity;BMP_temperature;BMP_pressure;BME280_temperature;BME280_humidity;BME280_pressure;Samples;Min_cycle;Max_cycle;Signal;HPM_P1;HPM_P2
2023/12/10 00:00:42;;;;;;;45.72;16.85;;;-6.70;99.90;;;;;;4921241;29;20185;-92
2023/12/10 00:03:09;;;;;;;43.88;16.00;;;-6.60;99.90;;;;;;4952685;29;20192;-92
2023/12/10 00:05:37;;;;;;;39.90;15.38;;;-6.50;99.90;;;;;;4921031;29;20248;-92
2023/12/10 00:08:05;;;;;;;47.92;18.35;;;-6.60;99.90;;;;;;4936690;29;20196;-93
2023/12/10 00:10:32;;;;;;;43.33;16.52;;;-6.70;99.90;;;;;;4952775;29;20689;-93
2023/12/10 00:13:00;;;;;;;50.38;17.48;;;-6.60;99.90;;;;;;4937344;29;20572;-92
2023/12/10 00:15:27;;;;;;;45.60;17.60;;;-6.60;99.90;;;;;;4936754;29;20569;-92
2023/12/10 00:17:55;;;;;;;51.70;17.02;;;-6.60;99.90;;;;;;4936850;29;20239;-93
2023/12/10 00:20:23;;;;;;;41.70;15.18;;;-6.60;99.90;;;;;;4921140;28;20192;-93
2023/12/10 00:22:51;;;;;;;44.30;16.98;;;-6.60;99.90;;;;;;4940224;29;20200;-93
2023/12/10 00:25:20;;;;;;;40.22;16.75;;;-6.60;99.90;;;;;;4956483;28;20722;-93
2023/12/10 00:27:47;;;;;;;46.78;16.55;;;-6.60;99.90;;;;;;4956570;29;20256;-92
2023/12/10 00:30:15;;;;;;;48.88;17.00;;;-6.60;99.90;;;;;;4940592;28;20283;-93
2023/12/10 00:32:43;;;;;;;46.10;17.13;;;-6.60;99.90;;;;;;4956304;29;20196;-92
2023/12/10 00:35:10;;;;;;;43.42;16.67;;;-6.60;99.90;;;;;;4940407;29;20207;-93
2023/12/10 00:37:38;;;;;;;42.17;16.15;;;-6.50;99.90;;;;;;4940185;29;20212;-92
2023/12/10 00:40:06;;;;;;;39.35;16.42;;;-6.40;99.90;;;;;;4924679;29;20723;-92
2023/12/10 00:42:33;;;;;;;46.53;15.63;;;-6.50;99.90;;;;;;4921535;29;20228;-93
2023/12/10 00:45:01;;;;;;;41.28;16.20;;;-6.60;99.90;;;;;;4921487;29;20193;-93
2023/12/10 00:47:29;;;;;;;46.20;16.52;;;-6.60;99.90;;;;;;4952598;29;20194;-94
2023/12/10 00:49:56;;;;;;;42.35;17.00;;;-6.50;99.90;;;;;;4936980;29;20185;-93
2023/12/10 00:52:23;;;;;;;47.05;14.27;;;-6.50;99.90;;;;;;4936878;29;20279;-93
2023/12/10 00:54:51;;;;;;;37.10;15.10;;;-6.40;99.90;;;;;;4920809;29;20204;-92
2023/12/10 00:57:18;;;;;;;45.15;17.50;;;-6.50;99.90;;;;;;4952740;29;20189;-93
2023/12/10 00:59:46;;;;;;;40.70;16.02;;;-6.40;99.90;;;;;;4937714;29;20190;-93
2023/12/10 01:02:14;;;;;;;39.30;15.40;;;-6.50;99.90;;;;;;4936955;29;20711;-93
2023/12/10 01:04:41;;;;;;;43.63;16.27;;;-6.50;99.90;;;;;;4952094;29;20197;-93
2023/12/10 01:07:11;;;;;;;40.38;16.13;;;-6.50;99.90;;;;;;4937898;29;20189;-93
2023/12/10 01:09:38;;;;;;;46.30;16.35;;;-6.40;99.90;;;;;;4937053;29;20216;-93
2023/12/10 01:12:07;;;;;;;41.72;15.55;;;-6.50;99.90;;;;;;4937369;29;20197;-93
2023/12/10 01:14:35;;;;;;;47.85;16.45;;;-6.50;99.90;;;;;;4952753;29;20196;-93
2023/12/10 01:17:03;;;;;;;46.05;18.60;;;-6.40;99.90;;;;;;4952299;29;20204;-92
2023/12/10 01:19:31;;;;;;;42.35;15.88;;;-6.40;99.90;;;;;;4952264;29;20221;-92
2023/12/10 01:21:58;;;;;;;45.95;15.70;;;-6.50;99.90;;;;;;4952136;29;20243;-93
2023/12/10 01:24:30;;;;;;;45.90;16.95;;;-6.40;99.90;;;;;;4936810;29;20659;-92
2023/12/10 01:26:57;;;;;;;41.58;16.08;;;-6.40;99.90;;;;;;4951681;29;20194;-93
2023/12/10 01:29:25;;;;;;;49.05;16.80;;;-6.50;99.90;;;;;;4951543;29;20197;-92
2023/12/10 01:31:53;;;;;;;40.45;15.13;;;-6.50;99.90;;;;;;4920559;29;20215;-93
2023/12/10 01:34:20;;;;;;;39.38;14.45;;;-6.50;99.90;;;;;;4950931;29;20198;-92
2023/12/10 01:36:49;;;;;;;39.20;16.60;;;-6.40;99.90;;;;;;4951774;29;20197;-93
2023/12/10 01:39:17;;;;;;;46.17;16.02;;;-6.50;99.90;;;;;;4920306;29;20213;-94
2023/12/10 01:41:45;;;;;;;46.63;16.63;;;-6.40;99.90;;;;;;4951660;29;20224;-93
2023/12/10 01:44:12;;;;;;;40.72;14.73;;;-6.40;99.90;;;;;;4935884;29;20603;-93
2023/12/10 01:46:40;;;;;;;40.08;15.52;;;-6.50;99.90;;;;;;4920348;29;20616;-93
2023/12/10 01:49:08;;;;;;;38.00;14.65;;;-6.50;99.90;;;;;;4951556;29;20424;-92
2023/12/10 01:51:37;;;;;;;41.80;15.60;;;-6.50;99.90;;;;;;4936000;29;20199;-93
2023/12/10 01:54:05;;;;;;;42.38;16.42;;;-6.40;99.90;;;;;;4951238;29;20197;-93
2023/12/10 01:56:33;;;;;;;42.28;15.95;;;-6.50;99.90;;;;;;4919813;29;20252;-93
2023/12/10 01:59:00;;;;;;;44.50;15.93;;;-6.40;99.90;;;;;;4935694;29;20209;-93
2023/12/10 02:01:28;;;;;;;40.03;15.35;;;-6.50;99.90;;;;;;4920022;29;20193;-92
2023/12/10 02:03:56;;;;;;;43.92;16.45;;;-6.40;99.90;;;;;;4935687;29;20197;-93
2023/12/10 02:06:25;;;;;;;44.83;16.45;;;-6.40;99.90;;;;;;4951476;29;20271;-93
2023/12/10 02:08:52;;;;;;;44.50;16.15;;;-6.40;99.90;;;;;;4919815;29;20248;-93
2023/12/10 02:11:20;;;;;;;42.30;15.57;;;-6.50;99.90;;;;;;4951281;29;20648;-93
2023/12/10 02:13:49;;;;;;;42.65;16.45;;;-6.30;99.90;;;;;;4935746;29;20202;-92
2023/12/10 02:16:17;;;;;;;44.40;16.73;;;-6.30;99.90;;;;;;4935494;29;20197;-93
2023/12/10 02:18:44;;;;;;;35.78;14.93;;;-6.30;99.90;;;;;;4951554;29;20229;-93
2023/12/10 02:21:12;;;;;;;43.55;16.27;;;-6.40;99.90;;;;;;4935333;29;20194;-92
2023/12/10 02:24:01;;;;;;;41.10;15.27;;;-6.50;99.90;;;;;;4950732;29;20197;-94
2023/12/10 02:26:29;;;;;;;39.35;14.07;;;-6.40;99.90;;;;;;4935224;29;20225;-93
2023/12/10 02:28:57;;;;;;;39.92;13.93;;;-6.40;99.90;;;;;;4950586;29;20201;-92
2023/12/10 02:31:25;;;;;;;36.42;12.70;;;-6.20;99.90;;;;;;4950713;29;20625;-93
2023/12/10 02:33:53;;;;;;;40.50;14.88;;;-6.40;99.90;;;;;;4935352;29;20268;-93
2023/12/10 02:36:21;;;;;;;38.50;14.57;;;-6.40;99.90;;;;;;4950790;29;20229;-93
2023/12/10 02:38:49;;;;;;;39.42;14.30;;;-6.40;99.90;;;;;;4934911;29;20223;-93
2023/12/10 02:41:16;;;;;;;38.45;14.77;;;-6.30;99.90;;;;;;4950514;28;20641;-93
2023/12/10 02:43:44;;;;;;;35.70;13.95;;;-6.40;99.90;;;;;;4918897;29;20197;-93
2023/12/10 02:46:12;;;;;;;38.38;14.98;;;-6.40;99.90;;;;;;4950440;29;20197;-94
2023/12/10 02:48:39;;;;;;;41.80;14.63;;;-6.40;99.90;;;;;;4934694;29;20201;-92
2023/12/10 02:51:07;;;;;;;38.72;15.38;;;-6.40;99.90;;;;;;4950494;29;20197;-93
2023/12/10 02:53:34;;;;;;;50.13;17.60;;;-6.40;99.90;;;;;;4934984;29;20225;-94
2023/12/10 02:56:02;;;;;;;37.75;14.05;;;-6.30;99.90;;;;;;4950478;29;20193;-93
2023/12/10 02:58:30;;;;;;;38.40;14.95;;;-6.40;99.90;;;;;;4950391;29;20217;-93
2023/12/10 03:00:57;;;;;;;43.28;14.43;;;-6.40;99.90;;;;;;4919036;29;20202;-93
2023/12/10 03:03:25;;;;;;;36.33;15.30;;;-6.40;99.90;;;;;;4950243;29;20223;-92
2023/12/10 03:05:53;;;;;;;43.92;16.08;;;-6.30;99.90;;;;;;4957194;28;20276;-93
2023/12/10 03:08:20;;;;;;;44.65;14.52;;;-6.30;99.90;;;;;;4918354;29;20189;-93
2023/12/10 03:10:48;;;;;;;40.95;14.00;;;-6.40;99.90;;;;;;4918397;29;20205;-93
2023/12/10 03:13:15;;;;;;;35.70;13.82;;;-6.40;99.90;;;;;;4934306;29;20201;-93
2023/12/10 03:15:43;;;;;;;35.55;14.00;;;-6.40;99.90;;;;;;4918589;29;20221;-93
2023/12/10 03:18:11;;;;;;;40.60;15.65;;;-6.50;99.90;;;;;;4934544;29;20203;-93
2023/12/10 03:20:38;;;;;;;38.67;15.70;;;-6.50;99.90;;;;;;4950113;29;20253;-93
2023/12/10 03:23:06;;;;;;;37.47;15.55;;;-6.40;99.90;;;;;;4918787;29;20221;-93
2023/12/10 03:25:33;;;;;;;46.10;15.10;;;-6.50;99.90;;;;;;4949947;29;20558;-93
2023/12/10 03:28:01;;;;;;;40.90;15.23;;;-6.50;99.90;;;;;;4918188;29;20288;-93
2023/12/10 03:30:28;;;;;;;39.38;15.52;;;-6.30;99.90;;;;;;4918259;29;20284;-93
2023/12/10 03:32:56;;;;;;;39.55;13.63;;;-6.30;99.90;;;;;;4918375;29;20196;-93
2023/12/10 03:35:24;;;;;;;40.65;14.23;;;-6.30;99.90;;;;;;4934839;29;20208;-92
2023/12/10 03:37:51;;;;;;;41.10;15.18;;;-6.30;99.90;;;;;;4919116;29;20268;-93
2023/12/10 03:40:19;;;;;;;40.35;14.27;;;-6.40;99.90;;;;;;4918014;29;20227;-93
2023/12/10 03:42:47;;;;;;;40.28;14.90;;;-6.40;99.90;;;;;;4933536;29;20222;-92
2023/12/10 03:45:15;;;;;;;40.83;15.77;;;-6.40;99.90;;;;;;4919200;29;20728;-92
2023/12/10 03:47:46;;;;;;;35.95;15.60;;;-6.50;99.90;;;;;;4934135;29;20190;-93
2023/12/10 03:50:15;;;;;;;37.63;15.70;;;-6.50;99.90;;;;;;4950021;29;20203;-92
2023/12/10 03:52:42;;;;;;;31.85;13.80;;;-6.50;99.90;;;;;;4918703;29;20201;-93
2023/12/10 03:55:10;;;;;;;38.83;14.90;;;-6.40;99.90;;;;;;4918134;29;20189;-94
2023/12/10 03:57:37;;;;;;;33.53;12.93;;;-6.50;99.90;;;;;;4949323;29;20278;-91
2023/12/10 04:00:06;;;;;;;34.05;13.32;;;-6.30;99.90;;;;;;4917885;29;20209;-92
2023/12/10 04:02:40;;;;;;;42.65;15.32;;;-6.40;99.90;;;;;;4918607;29;20658;-94
2023/12/10 04:05:11;;;;;;;44.67;14.68;;;-6.30;99.90;;;;;;4917995;29;20193;-93
2023/12/10 04:07:40;;;;;;;36.88;15.27;;;-6.40;99.90;;;;;;4918140;29;20190;-92
2023/12/10 04:10:08;;;;;;;38.00;15.65;;;-6.40;99.90;;;;;;4949474;29;20201;-93
2023/12/10 04:12:36;;;;;;;36.78;13.70;;;-6.30;99.90;;;;;;4918021;29;20189;-93
2023/12/10 04:15:04;;;;;;;38.95;15.50;;;-6.30;99.90;;;;;;4949361;29;20300;-93
2023/12/10 04:17:32;;;;;;;37.22;14.90;;;-6.40;99.90;;;;;;4917615;29;20204;-94
2023/12/10 04:20:00;;;;;;;40.83;14.90;;;-6.40;99.90;;;;;;4933388;29;20264;-94
2023/12/10 04:22:28;;;;;;;38.13;12.40;;;-6.30;99.90;;;;;;4917523;29;20206;-93
2023/12/10 04:24:55;;;;;;;31.05;13.32;;;-6.30;99.90;;;;;;4933755;29;20198;-93
2023/12/10 04:27:23;;;;;;;37.38;13.73;;;-6.30;99.90;;;;;;4917842;29;20224;-93
2023/12/10 04:29:51;;;;;;;41.38;14.60;;;-6.30;99.90;;;;;;4917769;29;20556;-92
2023/12/10 04:32:19;;;;;;;33.22;13.77;;;-6.40;99.90;;;;;;4917619;29;20210;-93
2023/12/10 04:34:46;;;;;;;39.00;13.70;;;-6.30;99.90;;;;;;4917769;29;20197;-93
2023/12/10 04:37:14;;;;;;;35.92;13.68;;;-6.30;99.90;;;;;;4933657;29;20288;-93
2023/12/10 04:39:41;;;;;;;39.58;13.90;;;-6.30;99.90;;;;;;4917654;29;20368;-92
2023/12/10 04:42:09;;;;;;;36.53;13.75;;;-6.30;99.90;;;;;;4933854;29;20235;-93
2023/12/10 04:44:36;;;;;;;38.88;14.52;;;-6.40;99.90;;;;;;4919727;29;20192;-94
2023/12/10 04:47:04;;;;;;;27.55;11.10;;;-6.40;99.90;;;;;;4934779;29;20190;-93
2023/12/10 04:49:31;;;;;;;37.60;13.80;;;-6.30;99.90;;;;;;4919590;29;20219;-93
2023/12/10 04:51:59;;;;;;;37.60;15.40;;;-6.40;99.90;;;;;;4919484;29;20197;-92
2023/12/10 04:54:27;;;;;;;42.47;15.32;;;-6.40;99.90;;;;;;4935462;29;20683;-92
2023/12/10 04:56:55;;;;;;;39.90;14.30;;;-6.40;99.90;;;;;;4919664;29;20201;-93
2023/12/10 04:59:22;;;;;;;33.22;13.35;;;-6.30;99.90;;;;;;4919487;29;20209;-93
2023/12/10 05:01:50;;;;;;;37.63;13.77;;;-6.40;99.90;;;;;;4935210;29;20564;-93
2023/12/10 05:04:18;;;;;;;34.00;13.10;;;-6.40;99.90;;;;;;4919466;29;20217;-93
2023/12/10 05:06:46;;;;;;;33.22;13.45;;;-6.30;99.90;;;;;;4919666;29;20318;-94
2023/12/10 05:09:14;;;;;;;33.63;14.27;;;-6.40;99.90;;;;;;4922723;29;20217;-93
2023/12/10 05:11:41;;;;;;;37.03;13.63;;;-6.30;99.90;;;;;;4922780;29;20193;-93
2023/12/10 05:14:09;;;;;;;30.75;11.63;;;-6.30;99.90;;;;;;4938765;29;20197;-92
2023/12/10 05:16:36;;;;;;;34.08;12.68;;;-6.30;99.90;;;;;;4922539;29;20252;-94
2023/12/10 05:19:04;;;;;;;36.92;13.43;;;-6.30;99.90;;;;;;4937941;29;20217;-93
2023/12/10 05:21:33;;;;;;;36.88;15.13;;;-6.30;99.90;;;;;;4922681;29;20197;-93
2023/12/10 05:24:00;;;;;;;36.45;13.90;;;-6.30;99.90;;;;;;4922603;29;20201;-92
2023/12/10 05:26:28;;;;;;;40.65;13.50;;;-6.30;99.90;;;;;;4922562;29;20197;-93
2023/12/10 05:28:56;;;;;;;35.03;14.65;;;-6.30;99.90;;;;;;4934479;29;20192;-93
2023/12/10 05:31:23;;;;;;;36.42;13.52;;;-6.30;99.90;;;;;;4973577;28;20284;-93
2023/12/10 05:33:50;;;;;;;33.03;12.98;;;-6.20;99.90;;;;;;4957346;28;20196;-92
2023/12/10 05:36:18;;;;;;;37.60;12.50;;;-6.30;99.90;;;;;;4973283;28;20195;-92
2023/12/10 05:38:46;;;;;;;35.83;13.02;;;-6.20;99.90;;;;;;4957183;29;20252;-93
2023/12/10 05:41:14;;;;;;;33.85;13.10;;;-6.20;99.90;;;;;;4973031;28;20699;-93
2023/12/10 05:43:41;;;;;;;34.03;14.50;;;-6.30;99.90;;;;;;4973249;28;20185;-92
2023/12/10 05:46:09;;;;;;;33.42;13.00;;;-6.30;99.90;;;;;;4972784;28;20284;-93
2023/12/10 05:48:36;;;;;;;37.08;13.23;;;-6.20;99.90;;;;;;4957156;28;20184;-93
2023/12/10 05:51:04;;;;;;;35.33;14.32;;;-6.20;99.90;;;;;;4973356;28;20275;-93
2023/12/10 05:53:32;;;;;;;36.83;13.15;;;-6.20;99.90;;;;;;4957093;29;20193;-94
2023/12/10 05:56:00;;;;;;;33.90;12.85;;;-6.30;99.90;;;;;;4973022;28;20192;-93
2023/12/10 05:58:28;;;;;;;37.47;13.32;;;-6.20;99.90;;;;;;4956954;28;20192;-93
2023/12/10 06:00:55;;;;;;;35.92;12.60;;;-6.20;99.90;;;;;;4972873;28;20754;-92
2023/12/10 06:03:24;;;;;;;30.35;12.65;;;-6.20;99.90;;;;;;4956815;28;20896;-93
2023/12/10 06:05:52;;;;;;;38.53;14.20;;;-6.20;99.90;;;;;;4972909;28;20192;-95
2023/12/10 06:08:20;;;;;;;35.33;13.63;;;-6.20;99.90;;;;;;4972766;28;20197;-93
2023/12/10 06:10:48;;;;;;;39.75;14.18;;;-6.20;99.90;;;;;;4956614;29;20200;-93
2023/12/10 06:13:15;;;;;;;32.80;13.82;;;-6.30;99.90;;;;;;4972225;28;20196;-93
2023/12/10 06:15:44;;;;;;;38.17;14.15;;;-6.30;99.90;;;;;;4957343;28;20224;-93
2023/12/10 06:18:12;;;;;;;33.75;13.20;;;-6.30;99.90;;;;;;4973292;28;20192;-93
2023/12/10 06:20:39;;;;;;;29.55;12.27;;;-6.30;99.90;;;;;;4956026;28;20228;-93
2023/12/10 06:23:07;;;;;;;36.85;15.77;;;-6.10;99.90;;;;;;4972587;28;20193;-92
2023/12/10 06:25:35;;;;;;;34.38;13.05;;;-6.20;99.90;;;;;;4973058;28;20197;-93
2023/12/10 06:28:02;;;;;;;37.60;13.93;;;-6.20;99.90;;;;;;4972310;28;20196;-92
2023/12/10 06:30:30;;;;;;;40.55;15.32;;;-6.20;99.90;;;;;;4971962;28;20540;-94
2023/12/10 06:32:58;;;;;;;29.75;11.57;;;-6.10;99.90;;;;;;4956154;28;20203;-92
2023/12/10 06:35:25;;;;;;;32.35;13.90;;;-6.10;99.90;;;;;;4956508;28;20189;-93
2023/12/10 06:37:53;;;;;;;27.77;10.98;;;-6.10;99.90;;;;;;4956179;28;20192;-92
2023/12/10 06:40:21;;;;;;;36.35;14.48;;;-6.10;99.90;;;;;;4972106;28;20213;-94
2023/12/10 06:42:48;;;;;;;35.97;13.65;;;-6.10;99.90;;;;;;4971917;28;20229;-94
2023/12/10 06:45:16;;;;;;;33.75;13.38;;;-6.10;99.90;;;;;;4972074;28;20189;-93
2023/12/10 06:47:43;;;;;;;37.47;14.30;;;-6.20;99.90;;;;;;4972083;28;20188;-93
2023/12/10 06:50:11;;;;;;;40.00;14.68;;;-6.10;99.90;;;;;;4972167;28;20244;-93
2023/12/10 06:52:38;;;;;;;30.45;13.18;;;-6.10;99.90;;;;;;4955616;29;20216;-93
2023/12/10 06:55:06;;;;;;;40.00;14.18;;;-6.00;99.90;;;;;;4971039;28;20197;-92
2023/12/10 06:57:34;;;;;;;33.92;14.43;;;-6.20;99.90;;;;;;4971297;28;20251;-93
2023/12/10 07:00:04;;;;;;;40.20;13.90;;;-6.20;99.90;;;;;;4971583;28;20220;-93
2023/12/10 07:02:31;;;;;;;39.00;14.65;;;-6.20;99.90;;;;;;4956877;28;20201;-93
2023/12/10 07:04:59;;;;;;;35.55;14.07;;;-6.20;99.90;;;;;;4936678;29;20193;-93
2023/12/10 07:07:26;;;;;;;45.72;17.30;;;-6.10;99.90;;;;;;4920656;29;20193;-93
2023/12/10 07:09:55;;;;;;;416.23;206.52;;;-6.00;99.90;;;;;;4936630;29;20202;-93
2023/12/10 07:12:22;;;;;;;110.13;62.63;;;-6.10;99.90;;;;;;4947576;28;20200;-93
2023/12/10 07:14:50;;;;;;;58.63;33.13;;;-6.00;99.90;;;;;;4971177;28;20199;-93
2023/12/10 07:17:18;;;;;;;51.20;30.17;;;-6.00;99.90;;;;;;4955503;28;20951;-94
2023/12/10 07:19:46;;;;;;;42.28;18.25;;;-6.10;99.90;;;;;;4971386;28;20216;-92
2023/12/10 07:22:13;;;;;;;49.53;25.05;;;-6.00;99.90;;;;;;4955620;28;20189;-93
2023/12/10 07:24:41;;;;;;;36.10;15.30;;;-6.10;99.90;;;;;;4971359;28;20195;-93
2023/12/10 07:27:09;;;;;;;63.88;38.33;;;-6.00;99.90;;;;;;4955336;28;20192;-93
2023/12/10 07:29:36;;;;;;;44.30;21.42;;;-6.10;99.90;;;;;;4971314;28;20656;-93
2023/12/10 07:32:04;;;;;;;47.85;26.30;;;-6.10;99.90;;;;;;4954599;28;20207;-94
2023/12/10 07:34:32;;;;;;;36.15;15.40;;;-6.00;99.90;;;;;;4971253;28;20193;-93
2023/12/10 07:36:59;;;;;;;41.75;17.55;;;-5.90;99.90;;;;;;4955469;28;20197;-93
2023/12/10 07:39:28;;;;;;;35.05;13.73;;;-6.00;99.90;;;;;;4970749;28;20208;-92
2023/12/10 07:41:56;;;;;;;40.67;16.80;;;-5.90;99.90;;;;;;4971240;28;20316;-93
2023/12/10 07:44:23;;;;;;;36.85;14.18;;;-5.90;99.90;;;;;;4955570;28;20280;-93
2023/12/10 07:46:51;;;;;;;49.60;18.02;;;-5.90;99.90;;;;;;4955223;28;20191;-94
2023/12/10 07:49:18;;;;;;;32.83;13.65;;;-6.00;99.90;;;;;;4955235;28;20193;-93
2023/12/10 07:51:46;;;;;;;41.05;19.05;;;-6.00;99.90;;;;;;4971272;28;20554;-93
2023/12/10 07:54:14;;;;;;;38.17;13.45;;;-6.00;99.90;;;;;;4971203;28;20181;-93
2023/12/10 07:56:42;;;;;;;38.17;15.45;;;-6.00;99.90;;;;;;4939132;29;20284;-94
2023/12/10 07:59:10;;;;;;;45.00;17.85;;;-5.90;99.90;;;;;;4970520;28;20196;-93
2023/12/10 08:01:37;;;;;;;44.83;14.65;;;-6.00;99.90;;;;;;4970907;28;20204;-93
2023/12/10 08:04:05;;;;;;;40.08;16.08;;;-5.90;99.90;;;;;;4955087;28;20216;-92
2023/12/10 08:06:32;;;;;;;38.83;14.13;;;-5.80;99.90;;;;;;4968615;28;20196;-94
2023/12/10 08:09:04;;;;;;;52.35;20.10;;;-5.90;99.90;;;;;;4927500;29;20208;-93
2023/12/10 08:11:32;;;;;;;43.75;18.30;;;-5.90;99.90;;;;;;4935805;29;20189;-94
2023/12/10 08:13:59;;;;;;;41.22;20.85;;;-5.90;99.90;;;;;;4951510;29;20189;-93
2023/12/10 08:16:27;;;;;;;40.85;19.15;;;-5.90;99.90;;;;;;4935246;29;20197;-93
2023/12/10 08:18:54;;;;;;;38.00;16.75;;;-5.80;99.90;;;;;;4922243;29;20205;-92
2023/12/10 08:21:22;;;;;;;33.78;14.48;;;-5.80;99.90;;;;;;4955043;28;20222;-92
2023/12/10 08:23:51;;;;;;;41.78;16.10;;;-5.80;99.90;;;;;;4923757;29;20200;-94
2023/12/10 08:26:18;;;;;;;38.75;15.35;;;-5.80;99.90;;;;;;4942402;29;20204;-93
2023/12/10 08:28:46;;;;;;;33.15;15.80;;;-5.80;99.90;;;;;;4941991;29;20193;-94
2023/12/10 08:31:13;;;;;;;39.67;19.95;;;-5.80;99.90;;;;;;4951286;29;20231;-94
2023/12/10 08:33:44;;;;;;;35.78;16.63;;;-5.80;99.90;;;;;;4951319;28;20200;-94
2023/12/10 08:36:12;;;;;;;46.33;17.83;;;-5.90;99.90;;;;;;4951359;28;20249;-93
2023/12/10 08:38:40;;;;;;;39.38;16.50;;;-5.80;99.90;;;;;;4951298;29;20190;-94
2023/12/10 08:41:08;;;;;;;41.28;17.88;;;-5.80;99.90;;;;;;4951093;28;20221;-92
2023/12/10 08:43:37;;;;;;;35.40;15.45;;;-5.80;99.90;;;;;;4954699;28;20185;-93
2023/12/10 08:46:05;;;;;;;38.85;16.52;;;-5.80;99.90;;;;;;4955160;29;20201;-93
2023/12/10 08:48:32;;;;;;;37.13;14.82;;;-5.80;99.90;;;;;;4954960;29;20240;-94
2023/12/10 08:51:00;;;;;;;38.45;16.63;;;-5.80;99.90;;;;;;4954152;29;20205;-94
2023/12/10 08:53:28;;;;;;;39.88;14.73;;;-5.70;99.90;;;;;;4967022;28;20224;-93
2023/12/10 08:55:55;;;;;;;38.13;16.10;;;-5.70;99.90;;;;;;4956776;28;20196;-93
2023/12/10 08:58:22;;;;;;;42.05;20.73;;;-5.70;99.90;;;;;;4972768;28;20259;-93
2023/12/10 09:00:50;;;;;;;43.40;14.93;;;-5.70;99.90;;;;;;4970499;28;20743;-92
2023/12/10 09:03:18;;;;;;;37.72;14.55;;;-5.70;99.90;;;;;;4954843;29;20278;-94
2023/12/10 09:05:45;;;;;;;40.83;16.00;;;-5.60;99.90;;;;;;4955736;29;20281;-93
2023/12/10 09:08:13;;;;;;;39.22;16.67;;;-5.60;99.90;;;;;;4970699;28;20264;-93
2023/12/10 09:10:40;;;;;;;35.05;14.98;;;-5.60;99.90;;;;;;4954861;28;20208;-93
2023/12/10 09:13:08;;;;;;;40.20;18.73;;;-5.50;99.90;;;;;;4953937;29;20652;-92
2023/12/10 09:15:35;;;;;;;40.65;16.13;;;-5.60;99.90;;;;;;4970613;28;20197;-91
2023/12/10 09:18:03;;;;;;;36.50;17.33;;;-5.70;99.90;;;;;;4970480;28;20197;-92
2023/12/10 09:20:30;;;;;;;41.72;18.00;;;-5.70;99.90;;;;;;4938428;29;20213;-93
2023/12/10 09:22:58;;;;;;;40.58;17.27;;;-5.60;99.90;;;;;;4954230;29;20261;-90
2023/12/10 09:25:25;;;;;;;38.35;14.30;;;-5.60;99.90;;;;;;4954244;29;20197;-91
2023/12/10 09:27:53;;;;;;;41.53;19.77;;;-5.60;99.90;;;;;;4969477;28;20220;-92
2023/12/10 09:30:20;;;;;;;39.17;17.58;;;-5.60;99.90;;;;;;4969901;28;20219;-91
2023/12/10 09:32:48;;;;;;;37.33;15.93;;;-5.50;99.90;;;;;;4953686;29;20193;-91
2023/12/10 09:35:15;;;;;;;38.50;16.90;;;-5.50;99.90;;;;;;4953704;29;20241;-91
2023/12/10 09:37:43;;;;;;;38.47;16.77;;;-5.50;99.90;;;;;;4969799;28;20189;-91
2023/12/10 09:40:11;;;;;;;44.15;17.75;;;-5.50;99.90;;;;;;4953581;28;20623;-92
2023/12/10 09:42:38;;;;;;;36.60;15.32;;;-5.50;99.90;;;;;;4937660;29;20229;-90
2023/12/10 09:45:07;;;;;;;34.58;15.35;;;-5.60;99.90;;;;;;4937675;29;20191;-91
2023/12/10 09:47:35;;;;;;;36.78;14.20;;;-5.50;99.90;;;;;;4937642;29;20197;-91
2023/12/10 09:50:03;;;;;;;40.55;15.80;;;-5.50;99.90;;;;;;4969097;28;20218;-90
2023/12/10 09:52:31;;;;;;;39.03;15.48;;;-5.50;99.90;;;;;;4953352;28;20889;-93
2023/12/10 09:54:59;;;;;;;43.13;16.70;;;-5.50;99.90;;;;;;4935940;29;20232;-93
2023/12/10 09:57:29;;;;;;;37.65;15.02;;;-5.50;99.90;;;;;;4968435;28;20220;-91
2023/12/10 09:59:57;;;;;;;39.90;14.85;;;-5.50;99.90;;;;;;4951054;29;20198;-93
2023/12/10 10:02:34;;;;;;;37.72;14.32;;;-5.50;99.90;;;;;;4951091;28;20200;-93
2023/12/10 10:05:03;;;;;;;36.30;16.30;;;-5.50;99.90;;;;;;4953329;28;20193;-92
2023/12/10 10:07:31;;;;;;;39.60;14.55;;;-5.50;99.90;;;;;;4952700;28;20306;-92
2023/12/10 10:09:59;;;;;;;36.28;15.00;;;-5.50;99.90;;;;;;4968940;28;20249;-93
2023/12/10 10:12:30;;;;;;;36.72;15.85;;;-5.40;99.90;;;;;;4952967;28;20218;-93
2023/12/10 10:15:00;;;;;;;38.30;15.75;;;-5.50;99.90;;;;;;4952897;28;20189;-93
2023/12/10 10:17:32;;;;;;;37.53;15.73;;;-5.50;99.90;;;;;;4921493;29;20276;-91
2023/12/10 10:20:04;;;;;;;38.55;15.00;;;-5.50;99.90;;;;;;4937139;29;20197;-91
2023/12/10 10:22:32;;;;;;;37.55;19.10;;;-5.40;99.90;;;;;;4952332;28;20752;-91
2023/12/10 10:25:00;;;;;;;42.63;16.75;;;-5.40;99.90;;;;;;4968728;28;20197;-90
2023/12/10 10:27:30;;;;;;;35.47;15.75;;;-5.40;99.90;;;;;;4951996;28;20193;-91
2023/12/10 10:29:59;;;;;;;41.75;16.88;;;-5.40;99.90;;;;;;4952487;28;20185;-91
2023/12/10 10:32:28;;;;;;;37.35;14.52;;;-5.30;99.90;;;;;;4951668;29;20280;-92
2023/12/10 10:34:56;;;;;;;38.55;17.80;;;-5.30;99.90;;;;;;4964506;28;20193;-91
2023/12/10 10:37:24;;;;;;;41.90;16.17;;;-5.30;99.90;;;;;;4971370;28;20216;-92
2023/12/10 10:39:52;;;;;;;39.85;17.25;;;-5.40;99.90;;;;;;4940275;29;20247;-92
2023/12/10 10:42:20;;;;;;;41.20;18.38;;;-5.30;99.90;;;;;;4940036;29;20255;-91
2023/12/10 10:44:47;;;;;;;39.10;16.27;;;-5.40;99.90;;;;;;4972380;28;20188;-91
2023/12/10 10:47:18;;;;;;;41.17;16.63;;;-5.40;99.90;;;;;;4966340;28;20269;-92
2023/12/10 10:49:51;;;;;;;40.50;16.65;;;-5.30;99.90;;;;;;4969180;28;20240;-91
2023/12/10 10:52:40;;;;;;;38.88;17.67;;;-5.30;99.90;;;;;;4950109;28;20558;-88
2023/12/10 10:55:10;;;;;;;45.75;19.70;;;-5.30;99.90;;;;;;4926589;29;20197;-91
2023/12/10 10:57:39;;;;;;;36.50;16.00;;;-5.30;99.90;;;;;;4956050;28;20200;-91
2023/12/10 11:00:19;;;;;;;31.10;13.85;;;-5.30;99.90;;;;;;4935415;29;20189;-90
2023/12/10 11:02:49;;;;;;;36.75;14.88;;;-5.20;99.90;;;;;;4936009;29;20188;-90
2023/12/10 11:05:33;;;;;;;37.35;14.52;;;-5.30;99.90;;;;;;4936365;29;20186;-94
2023/12/10 11:08:07;;;;;;;33.92;15.02;;;-5.30;99.90;;;;;;4952245;29;20200;-90
2023/12/10 11:10:35;;;;;;;35.80;15.73;;;-5.20;99.90;;;;;;4936582;29;20190;-91
2023/12/10 11:13:03;;;;;;;43.72;16.77;;;-5.30;99.90;;;;;;4951985;29;20197;-90
2023/12/10 11:15:30;;;;;;;34.50;14.93;;;-5.30;99.90;;;;;;4920696;29;20252;-90
2023/12/10 11:18:00;;;;;;;31.58;13.43;;;-5.30;99.90;;;;;;4954252;28;20204;-90
2023/12/10 11:20:40;;;;;;;38.78;14.80;;;-5.20;99.90;;;;;;4949699;28;20219;-91
2023/12/10 11:23:16;;;;;;;36.72;15.20;;;-5.20;99.90;;;;;;4954182;29;20562;-94
2023/12/10 11:25:44;;;;;;;39.25;16.98;;;-5.20;99.90;;;;;;4970945;28;20193;-90
2023/12/10 11:28:20;;;;;;;40.15;16.65;;;-5.20;99.90;;;;;;4971046;28;20303;-91
2023/12/10 11:30:48;;;;;;;40.07;14.20;;;-5.20;99.90;;;;;;4972152;28;20227;-91
2023/12/10 11:33:16;;;;;;;38.65;15.52;;;-5.20;99.90;;;;;;4951658;29;20196;-91
2023/12/10 11:35:44;;;;;;;39.90;14.80;;;-5.20;99.90;;;;;;4920595;29;20197;-91
2023/12/10 11:38:32;;;;;;;38.20;17.15;;;-5.20;99.90;;;;;;4928508;29;20188;-91
2023/12/10 11:40:59;;;;;;;38.95;14.95;;;-5.20;99.90;;;;;;4954648;29;20324;-91
2023/12/10 11:43:27;;;;;;;37.50;15.20;;;-5.20;99.90;;;;;;4939349;29;20213;-92
2023/12/10 11:45:56;;;;;;;36.80;14.32;;;-5.20;99.90;;;;;;4940322;29;20189;-92
2023/12/10 11:48:24;;;;;;;39.20;15.90;;;-5.20;99.90;;;;;;4938905;28;20193;-91
2023/12/10 11:50:53;;;;;;;38.25;16.08;;;-5.20;99.90;;;;;;4938995;29;20201;-91
2023/12/10 11:53:21;;;;;;;36.55;14.70;;;-5.20;99.90;;;;;;4922707;29;20659;-94
2023/12/10 11:55:51;;;;;;;43.70;16.23;;;-5.10;99.90;;;;;;4922625;29;20199;-91
2023/12/10 11:58:28;;;;;;;38.97;14.15;;;-5.10;99.90;;;;;;4939086;28;20291;-92
2023/12/10 12:01:00;;;;;;;41.13;14.43;;;-5.20;99.90;;;;;;4922993;29;20697;-91
2023/12/10 12:03:31;;;;;;;36.70;14.30;;;-5.20;99.90;;;;;;4938020;29;20193;-92
2023/12/10 12:05:59;;;;;;;33.20;13.93;;;-5.20;99.90;;;;;;4938997;28;20200;-92
2023/12/10 12:08:28;;;;;;;35.85;14.45;;;-5.10;99.90;;;;;;4938932;29;20264;-92
2023/12/10 12:10:59;;;;;;;35.63;15.07;;;-5.10;99.90;;;;;;4923086;29;20207;-91
2023/12/10 12:13:29;;;;;;;36.70;14.10;;;-5.10;99.90;;;;;;4938871;28;20188;-92
2023/12/10 12:15:56;;;;;;;43.72;16.13;;;-5.10;99.90;;;;;;4923241;29;20193;-90
2023/12/10 12:18:26;;;;;;;43.70;17.20;;;-5.10;99.90;;;;;;4941669;28;20213;-92
2023/12/10 12:20:54;;;;;;;39.35;14.77;;;-5.10;99.90;;;;;;4926382;29;20219;-92
2023/12/10 12:23:22;;;;;;;33.65;13.75;;;-5.10;99.90;;;;;;4926795;29;20216;-93
2023/12/10 12:25:49;;;;;;;41.85;16.20;;;-5.10;99.90;;;;;;4926337;29;20193;-91
2023/12/10 12:28:17;;;;;;;38.22;16.15;;;-5.10;99.90;;;;;;4941375;29;20643;-91
2023/12/10 12:30:44;;;;;;;41.42;15.80;;;-5.10;99.90;;;;;;4925575;29;20666;-92